Time;durP1;ratioP1;P1;durP2;ratioP2;P2;SDS_P1;SDS_P2;PMS_P1;PMS_P2;Temp;Humidity;BMP_temperature;BMP_pressure;BME280_temperature;BME280_humidity;BME280_pressure;Samples;Min_cycle;Max_cycle;Signal;HPM_P1;HPM_P2
2022/10/02 00:02:27;;;;;;;16.00;3.28;;;14.30;99.90;;;;;;4963220;28;20027;-79
2022/10/02 00:04:56;;;;;;;22.10;3.53;;;14.40;99.90;;;;;;4967400;28;20141;-79
2022/10/02 00:07:29;;;;;;;23.92;3.65;;;14.40;99.90;;;;;;4963859;28;20149;-81
2022/10/02 00:10:01;;;;;;;22.65;2.95;;;14.40;99.90;;;;;;4962709;28;20113;-79
2022/10/02 00:12:29;;;;;;;20.00;3.42;;;14.50;99.90;;;;;;4963366;28;20190;-75
2022/10/02 00:15:02;;;;;;;15.55;2.90;;;14.50;99.90;;;;;;4965149;28;20341;-79
2022/10/02 00:17:34;;;;;;;24.55;4.05;;;14.60;99.90;;;;;;4965578;28;20076;-78
2022/10/02 00:20:00;;;;;;;19.60;3.53;;;14.60;99.90;;;;;;4967749;28;20044;-81
2022/10/02 00:22:59;;;;;;;26.38;3.90;;;14.70;99.90;;;;;;4964310;28;20030;-78
2022/10/02 00:25:43;;;;;;;19.88;3.67;;;14.70;99.90;;;;;;4956817;28;20082;-80
2022/10/02 00:28:16;;;;;;;16.60;3.15;;;14.70;99.90;;;;;;4964187;28;20459;-79
2022/10/02 00:30:51;;;;;;;23.00;3.47;;;14.70;99.90;;;;;;4965253;28;20027;-74
2022/10/02 00:33:30;;;;;;;17.30;3.22;;;14.60;99.90;;;;;;4963191;28;20030;-80
2022/10/02 00:35:59;;;;;;;22.25;3.42;;;14.60;99.90;;;;;;4963176;28;20073;-80
2022/10/02 00:38:37;;;;;;;25.40;3.45;;;14.70;99.90;;;;;;4944798;28;20609;-82
2022/10/02 00:41:24;;;;;;;28.27;3.75;;;14.50;99.90;;;;;;4963089;28;20027;-78
2022/10/02 00:44:27;;;;;;;36.55;4.07;;;14.70;99.90;;;;;;4961047;28;20089;-80
2022/10/02 00:46:59;;;;;;;24.20;4.15;;;14.70;99.90;;;;;;4915086;28;20420;-79
2022/10/02 00:49:52;;;;;;;21.05;4.15;;;14.80;99.90;;;;;;4948954;28;20031;-79
2022/10/02 00:52:44;;;;;;;;;;;14.80;99.90;;;;;;4964846;28;20317;-81
2022/10/02 00:55:21;;;;;;;21.77;4.57;;;14.80;99.90;;;;;;4934555;28;20385;-78
2022/10/02 00:57:59;;;;;;;27.05;4.88;;;14.70;99.90;;;;;;4946484;28;20086;-80
2022/10/02 01:00:27;;;;;;;28.52;5.47;;;14.80;99.90;;;;;;4954638;28;20027;-79
2022/10/02 01:03:15;;;;;;;19.55;5.32;;;14.80;99.90;;;;;;4952564;28;20019;-81
2022/10/02 01:05:40;;;;;;;34.92;5.30;;;14.70;99.90;;;;;;4960803;28;20286;-80
2022/10/02 01:08:07;;;;;;;29.38;5.65;;;14.80;99.90;;;;;;4952325;28;20125;-79
2022/10/02 01:10:38;;;;;;;17.23;4.60;;;14.70;99.90;;;;;;4960482;28;20440;-79
2022/10/02 01:13:06;;;;;;;25.10;5.80;;;14.70;99.90;;;;;;4945292;28;20038;-78
2022/10/02 01:15:39;;;;;;;23.52;4.93;;;14.70;99.90;;;;;;4963259;28;20058;-77
2022/10/02 01:18:06;;;;;;;22.98;4.93;;;14.70;99.90;;;;;;4961729;28;20031;-78
2022/10/02 01:20:41;;;;;;;35.45;6.50;;;14.60;99.90;;;;;;4959642;28;20027;-79
2022/10/02 01:23:17;;;;;;;28.15;5.50;;;14.70;99.90;;;;;;4947468;28;20039;-79
2022/10/02 01:25:45;;;;;;;25.58;4.95;;;14.70;99.90;;;;;;4944506;28;20027;-78
2022/10/02 01:28:11;;;;;;;19.75;4.95;;;14.70;99.90;;;;;;4962034;28;20031;-78
2022/10/02 01:30:43;;;;;;;29.02;5.40;;;14.80;99.90;;;;;;4965364;28;20035;-79
2022/10/02 01:33:11;;;;;;;23.93;5.13;;;14.70;99.90;;;;;;4974916;28;20030;-80
2022/10/02 01:35:38;;;;;;;27.83;5.30;;;14.60;99.90;;;;;;4964335;28;20122;-83
2022/10/02 01:38:12;;;;;;;34.47;5.45;;;14.70;99.90;;;;;;4963898;28;20034;-79
2022/10/02 01:40:39;;;;;;;19.23;5.80;;;14.80;99.90;;;;;;4959438;28;20111;-79
2022/10/02 01:43:27;;;;;;;20.45;5.80;;;14.80;99.90;;;;;;4963774;28;20112;-80
2022/10/02 01:46:14;;;;;;;32.42;6.20;;;14.80;99.90;;;;;;4958097;28;20028;-80
2022/10/02 01:48:58;;;;;;;29.88;7.18;;;14.70;99.90;;;;;;4960637;28;20031;-79
2022/10/02 01:51:29;;;;;;;34.42;7.07;;;14.70;99.90;;;;;;4964978;28;20022;-77
2022/10/02 01:54:13;;;;;;;27.70;6.20;;;14.70;99.90;;;;;;4959718;28;20027;-78
2022/10/02 01:57:01;;;;;;;19.50;6.10;;;14.70;99.90;;;;;;4966023;28;20333;-79
2022/10/02 01:59:41;;;;;;;30.52;8.55;;;14.70;99.90;;;;;;4957328;28;20019;-74
2022/10/02 02:02:21;;;;;;;28.98;9.18;;;14.60;99.90;;;;;;4964839;28;20459;-80
2022/10/02 02:04:58;;;;;;;37.00;8.05;;;14.70;99.90;;;;;;4961821;28;20119;-79
2022/10/02 02:07:45;;;;;;;28.25;7.93;;;14.70;99.90;;;;;;4954610;28;20035;-77
2022/10/02 02:10:31;;;;;;;29.27;7.28;;;14.70;99.90;;;;;;4958613;28;20042;-78
2022/10/02 02:13:06;;;;;;;32.40;7.28;;;14.70;99.90;;;;;;4961714;28;20042;-78
2022/10/02 02:16:00;;;;;;;20.95;5.60;;;14.70;99.90;;;;;;4961782;28;20107;-79
2022/10/02 02:18:40;;;;;;;28.05;5.70;;;14.70;99.90;;;;;;4929621;28;20051;-78
2022/10/02 02:21:12;;;;;;;20.52;6.38;;;14.70;99.90;;;;;;4962466;28;20023;-78
2022/10/02 02:23:41;;;;;;;28.98;4.65;;;14.70;99.90;;;;;;4960974;28;20031;-76
2022/10/02 02:26:11;;;;;;;24.17;5.50;;;14.70;99.90;;;;;;4961413;28;20174;-73
2022/10/02 02:28:44;;;;;;;34.22;5.47;;;14.60;99.90;;;;;;4968272;28;20030;-79
2022/10/02 02:31:15;;;;;;;25.25;6.20;;;14.60;99.90;;;;;;4957741;28;20031;-79
2022/10/02 02:33:51;;;;;;;29.35;4.55;;;14.60;99.90;;;;;;4951295;28;20023;-78
2022/10/02 02:36:20;;;;;;;22.10;5.00;;;14.60;99.90;;;;;;4964619;28;20027;-80
2022/10/02 02:39:00;;;;;;;37.90;5.53;;;14.60;99.90;;;;;;4962946;28;20042;-79
2022/10/02 02:41:30;;;;;;;25.30;5.20;;;14.60;99.90;;;;;;4966876;28;20019;-76
2022/10/02 02:44:11;;;;;;;28.65;5.13;;;14.70;99.90;;;;;;4962337;28;20119;-79
2022/10/02 02:49:36;;;;;;;27.05;4.57;;;14.70;99.90;;;;;;4966121;28;20038;-79
2022/10/02 02:52:05;;;;;;;25.63;4.72;;;14.70;99.90;;;;;;4966086;28;20085;-81
2022/10/02 02:54:44;;;;;;;30.55;4.75;;;14.80;99.90;;;;;;4957311;28;20042;-82
2022/10/02 02:57:13;;;;;;;25.65;4.40;;;14.70;99.90;;;;;;4947446;28;20045;-80
2022/10/02 02:59:42;;;;;;;23.33;4.18;;;14.80;99.90;;;;;;4964777;28;20030;-81
2022/10/02 03:02:10;;;;;;;29.65;4.32;;;14.80;99.90;;;;;;4967281;28;20023;-82
2022/10/02 03:04:36;;;;;;;27.80;4.07;;;14.80;99.90;;;;;;4963806;28;20031;-79
2022/10/02 03:07:05;;;;;;;28.58;4.88;;;14.80;99.90;;;;;;4964812;28;20153;-82
2022/10/02 03:09:32;;;;;;;31.38;4.85;;;14.70;99.90;;;;;;4964287;28;20107;-81
2022/10/02 03:12:19;;;;;;;27.10;4.20;;;14.70;99.90;;;;;;4963440;28;20058;-81
2022/10/02 03:14:56;;;;;;;28.95;4.18;;;14.70;99.90;;;;;;4963122;28;20110;-78
2022/10/02 03:17:30;;;;;;;29.63;4.22;;;14.70;99.90;;;;;;4961234;28;20033;-80
2022/10/02 03:20:09;;;;;;;29.58;4.22;;;14.70;99.90;;;;;;4965288;28;20513;-81
2022/10/02 03:22:47;;;;;;;25.48;3.90;;;14.70;99.90;;;;;;4966699;28;20059;-82
2022/10/02 03:26:03;;;;;;;25.75;3.42;;;14.60;99.90;;;;;;4963197;28;20031;-83
2022/10/02 03:28:31;;;;;;;25.67;3.92;;;14.60;99.90;;;;;;4922873;28;20047;-82
2022/10/02 03:31:02;;;;;;;25.45;3.83;;;14.70;99.90;;;;;;4962949;28;20069;-83
2022/10/02 03:33:31;;;;;;;29.48;4.20;;;14.60;99.90;;;;;;4960849;28;20058;-82
2022/10/02 03:35:57;;;;;;;30.35;3.60;;;14.70;99.90;;;;;;4964855;28;20042;-79
2022/10/02 03:38:25;;;;;;;33.17;4.25;;;14.70;99.90;;;;;;4961137;28;20375;-80
2022/10/02 03:40:56;;;;;;;26.33;3.92;;;14.80;99.90;;;;;;4942854;28;20019;-81
2022/10/02 03:43:26;;;;;;;28.70;4.57;;;14.70;99.90;;;;;;4962494;28;20036;-79
2022/10/02 03:45:56;;;;;;;44.80;4.70;;;14.70;99.90;;;;;;4940136;28;20027;-79
2022/10/02 03:48:24;;;;;;;22.67;3.70;;;14.80;99.90;;;;;;4964469;28;20023;-82
2022/10/02 03:50:49;;;;;;;34.53;4.63;;;14.80;99.90;;;;;;4948414;28;20448;-80
2022/10/02 03:53:21;;;;;;;30.40;3.80;;;14.80;99.90;;;;;;4965921;28;20023;-80
2022/10/02 03:55:49;;;;;;;21.60;4.65;;;14.80;99.90;;;;;;4960843;28;20019;-80
2022/10/02 03:58:19;;;;;;;28.48;4.05;;;14.80;99.90;;;;;;4965472;28;20106;-81
2022/10/02 04:01:11;;;;;;;43.35;4.60;;;14.70;99.90;;;;;;4971703;28;20244;-79
2022/10/02 04:03:47;;;;;;;30.98;4.07;;;14.70;99.90;;;;;;4972704;28;20541;-80
2022/10/02 04:06:31;;;;;;;25.33;3.83;;;14.70;99.90;;;;;;4969389;28;20023;-80
2022/10/02 04:09:25;;;;;;;30.52;4.28;;;14.70;99.90;;;;;;4966915;28;20451;-80
2022/10/02 04:12:15;;;;;;;34.50;4.18;;;14.60;99.90;;;;;;4945189;28;20030;-78
2022/10/02 04:14:54;;;;;;;28.33;3.92;;;14.70;99.90;;;;;;4962411;28;20023;-80
2022/10/02 04:17:42;;;;;;;35.38;3.70;;;14.60;99.90;;;;;;4963364;28;20035;-77
2022/10/02 04:20:17;;;;;;;32.28;4.45;;;14.70;99.90;;;;;;4963062;28;20058;-78
2022/10/02 04:22:58;;;;;;;29.25;4.28;;;14.70;99.90;;;;;;4962968;28;20046;-81
2022/10/02 04:25:32;;;;;;;35.70;4.35;;;14.60;99.90;;;;;;4949323;28;20024;-78
2022/10/02 04:28:09;;;;;;;31.35;3.80;;;14.60;99.90;;;;;;4960602;28;20033;-79
2022/10/02 04:30:37;;;;;;;27.75;3.83;;;14.50;99.90;;;;;;4962540;28;20037;-81
2022/10/02 04:33:19;;;;;;;34.45;5.05;;;14.60;99.90;;;;;;4959748;28;20031;-80
2022/10/02 04:36:07;;;;;;;42.05;4.20;;;14.70;99.90;;;;;;4952507;28;20146;-79
2022/10/02 04:38:54;;;;;;;26.58;3.72;;;14.70;99.90;;;;;;4961036;28;20471;-80
2022/10/02 04:41:32;;;;;;;24.38;3.75;;;14.70;99.90;;;;;;4964384;28;20024;-80
2022/10/02 04:44:03;;;;;;;30.42;4.00;;;14.70;99.90;;;;;;4963745;28;20019;-78
2022/10/02 04:46:44;;;;;;;22.60;3.60;;;14.70;99.90;;;;;;4963476;28;20238;-82
2022/10/02 04:49:29;;;;;;;29.00;3.88;;;14.70;99.90;;;;;;4964303;28;20050;-77
2022/10/02 04:52:23;;;;;;;36.08;4.10;;;14.70;99.90;;;;;;4964610;28;20031;-79
2022/10/02 04:54:58;;;;;;;17.95;3.10;;;14.80;99.90;;;;;;4960931;28;20080;-79
2022/10/02 04:57:35;;;;;;;32.05;4.22;;;14.80;99.90;;;;;;4961214;28;20756;-81
2022/10/02 05:00:01;;;;;;;27.55;4.03;;;14.80;99.90;;;;;;4963922;28;20035;-74
2022/10/02 05:02:44;;;;;;;29.98;3.35;;;14.90;99.90;;;;;;4960250;28;20531;-75
2022/10/02 05:05:09;;;;;;;19.63;3.23;;;14.90;99.90;;;;;;4961458;28;20027;-76
2022/10/02 05:08:00;;;;;;;18.08;2.95;;;14.90;99.90;;;;;;4962311;28;20353;-76
2022/10/02 05:11:11;;;;;;;27.20;3.63;;;14.90;99.90;;;;;;4959365;28;20038;-75
2022/10/02 05:13:55;;;;;;;37.40;4.07;;;14.90;99.90;;;;;;4919040;28;20070;-75
2022/10/02 05:16:39;;;;;;;30.17;3.60;;;14.80;99.90;;;;;;4943208;28;20127;-75
2022/10/02 05:19:07;;;;;;;21.63;3.35;;;14.70;99.90;;;;;;4962161;28;20551;-74
2022/10/02 05:22:20;;;;;;;27.48;3.60;;;14.80;99.90;;;;;;4946942;28;20035;-76
2022/10/02 05:24:54;;;;;;;18.42;3.75;;;14.80;99.90;;;;;;4889266;29;20097;-74
2022/10/02 05:27:22;;;;;;;21.40;3.60;;;14.80;99.90;;;;;;4950900;28;20452;-75
2022/10/02 05:30:07;;;;;;;25.13;3.83;;;14.80;99.90;;;;;;4943471;28;20039;-76
2022/10/02 05:33:00;;;;;;;28.73;3.88;;;14.90;99.90;;;;;;4960138;28;20027;-74
2022/10/02 05:35:46;;;;;;;27.77;3.45;;;14.90;99.90;;;;;;4945932;28;20720;-75
2022/10/02 05:38:36;;;;;;;28.85;3.47;;;14.80;99.90;;;;;;4951577;28;20031;-75
2022/10/02 05:41:08;;;;;;;27.05;3.72;;;14.80;99.90;;;;;;4960822;28;20037;-75
2022/10/02 05:43:56;;;;;;;19.88;3.15;;;14.80;99.90;;;;;;4950732;28;20027;-76
2022/10/02 05:46:24;;;;;;;19.92;3.08;;;14.80;99.90;;;;;;4962661;28;20035;-75
2022/10/02 05:49:04;;;;;;;18.70;3.53;;;14.80;99.90;;;;;;4951323;28;20027;-75
2022/10/02 05:51:52;;;;;;;23.20;3.13;;;14.80;99.90;;;;;;4947008;28;20035;-75
2022/10/02 05:54:59;;;;;;;17.20;3.05;;;14.90;99.90;;;;;;4960921;28;20093;-75
2022/10/02 05:57:40;;;;;;;19.05;3.45;;;14.90;99.90;;;;;;4964279;28;20443;-75
2022/10/02 06:00:24;;;;;;;19.25;3.20;;;14.90;99.90;;;;;;4960997;28;20019;-76
2022/10/02 06:03:20;;;;;;;14.07;3.03;;;14.90;99.90;;;;;;4968878;28;20026;-76
2022/10/02 06:05:56;;;;;;;14.52;2.92;;;14.90;99.90;;;;;;4969769;28;20054;-75
2022/10/02 06:08:31;;;;;;;23.35;3.65;;;14.90;99.90;;;;;;4954693;28;20046;-76
2022/10/02 06:11:04;;;;;;;13.73;2.95;;;14.90;99.90;;;;;;4948315;28;20118;-74
2022/10/02 06:13:55;;;;;;;16.38;3.38;;;15.00;99.90;;;;;;4953939;28;20050;-74
2022/10/02 06:16:50;;;;;;;19.90;3.45;;;14.90;99.90;;;;;;4962380;28;20024;-76
2022/10/02 06:19:27;;;;;;;12.68;2.78;;;15.00;99.90;;;;;;4950681;28;20070;-77
2022/10/02 06:21:58;;;;;;;16.98;2.70;;;15.10;99.90;;;;;;4957299;28;20094;-76
2022/10/02 06:24:32;;;;;;;14.50;3.28;;;15.00;99.90;;;;;;4944152;28;20129;-75
2022/10/02 06:27:07;;;;;;;11.43;3.25;;;15.10;99.90;;;;;;4962886;28;20027;-75
2022/10/02 06:29:40;;;;;;;17.77;3.03;;;15.20;99.90;;;;;;4967168;28;20081;-75
2022/10/02 06:32:21;;;;;;;;;;;15.20;99.90;;;;;;4950056;28;20038;-75
2022/10/02 06:34:49;;;;;;;10.70;2.80;;;15.10;99.90;;;;;;4947197;28;19910;-75
2022/10/02 06:37:37;;;;;;;14.65;3.25;;;15.20;99.90;;;;;;4964320;28;20027;-76
2022/10/02 06:40:31;;;;;;;10.15;3.38;;;15.10;99.90;;;;;;4970607;28;20118;-76
2022/10/02 06:42:59;;;;;;;;;;;15.20;99.90;;;;;;4971732;28;20027;-75
2022/10/02 06:45:44;;;;;;;14.43;3.28;;;15.30;99.90;;;;;;4946791;28;19917;-74
2022/10/02 06:48:24;;;;;;;15.95;3.67;;;15.30;99.90;;;;;;4948405;28;20170;-76
2022/10/02 06:51:23;;;;;;;18.95;3.67;;;15.30;99.90;;;;;;4965609;28;20151;-76
2022/10/02 06:54:30;;;;;;;12.95;3.40;;;15.30;99.90;;;;;;4962343;28;20027;-75
2022/10/02 06:57:01;;;;;;;15.35;3.60;;;15.30;99.90;;;;;;4965797;28;20054;-75
2022/10/02 06:59:45;;;;;;;14.05;3.63;;;15.30;99.90;;;;;;4964435;28;20023;-75
2022/10/02 07:02:45;;;;;;;24.38;4.20;;;15.40;99.90;;;;;;4961015;28;20026;-75
2022/10/02 07:05:29;;;;;;;18.60;4.00;;;15.40;99.90;;;;;;4963429;28;20026;-75
2022/10/02 07:08:07;;;;;;;14.82;3.53;;;15.50;99.90;;;;;;4963475;28;20098;-76
2022/10/02 07:10:49;;;;;;;80.22;33.13;;;15.60;99.90;;;;;;4965722;28;20027;-71
2022/10/02 07:13:24;;;;;;;272.90;108.68;;;15.60;99.90;;;;;;4961220;28;20468;-71
2022/10/02 07:15:55;;;;;;;17.73;4.50;;;15.60;99.90;;;;;;4964547;28;20445;-75
2022/10/02 07:18:44;;;;;;;16.27;4.10;;;15.60;99.90;;;;;;4944319;28;20031;-75
2022/10/02 07:21:09;;;;;;;19.05;4.20;;;15.80;99.90;;;;;;4937722;28;20039;-76
2022/10/02 07:23:44;;;;;;;16.35;4.57;;;15.90;99.90;;;;;;4964359;28;20035;-73
2022/10/02 07:26:41;;;;;;;18.70;4.15;;;15.80;99.90;;;;;;4960711;28;20027;-75
2022/10/02 07:29:35;;;;;;;17.80;4.20;;;15.90;99.90;;;;;;4966763;28;20023;-75
2022/10/02 07:32:20;;;;;;;18.08;5.03;;;15.90;99.90;;;;;;4963399;28;20022;-76
2022/10/02 07:35:04;;;;;;;24.85;4.78;;;15.90;99.90;;;;;;4959555;28;20058;-75
2022/10/02 07:37:44;;;;;;;21.35;5.30;;;16.00;99.90;;;;;;4945711;28;20034;-75
2022/10/02 07:40:41;;;;;;;23.17;4.97;;;15.90;99.90;;;;;;4947737;28;20074;-74
2022/10/02 07:43:25;;;;;;;21.13;5.50;;;16.00;99.90;;;;;;4961125;28;20035;-73
2022/10/02 07:46:16;;;;;;;21.33;6.78;;;16.00;99.90;;;;;;4962521;28;20045;-74
2022/10/02 07:48:48;;;;;;;16.88;5.70;;;16.20;99.90;;;;;;4964227;28;20071;-75
2022/10/02 07:54:46;;;;;;;19.90;5.40;;;16.50;99.90;;;;;;4961665;28;20126;-74
2022/10/02 07:57:51;;;;;;;27.17;5.47;;;16.50;99.90;;;;;;4966350;28;20470;-76
2022/10/02 08:00:22;;;;;;;24.00;4.95;;;16.80;99.90;;;;;;4949525;28;20538;-75
2022/10/02 08:03:03;;;;;;;28.33;5.47;;;17.00;99.90;;;;;;4967375;28;20022;-74
2022/10/02 08:05:37;;;;;;;28.23;5.68;;;16.90;99.90;;;;;;4966030;28;20034;-75
2022/10/02 08:08:14;;;;;;;24.55;5.57;;;16.90;99.90;;;;;;4963580;28;20460;-75
2022/10/02 08:10:43;;;;;;;20.15;4.97;;;16.90;99.90;;;;;;4961463;28;20122;-75
2022/10/02 08:13:20;;;;;;;22.20;6.05;;;17.00;99.90;;;;;;4947038;28;20740;-76
2022/10/02 08:15:49;;;;;;;18.10;6.18;;;16.90;99.90;;;;;;4951682;28;20045;-74
2022/10/02 08:18:38;;;;;;;24.65;6.43;;;17.00;99.90;;;;;;4966407;28;20042;-77
2022/10/02 08:21:11;;;;;;;30.58;5.95;;;16.90;99.90;;;;;;4961997;28;20054;-75
2022/10/02 08:24:01;;;;;;;368.02;157.65;;;16.80;99.90;;;;;;4962093;28;20098;-71
2022/10/02 08:26:35;;;;;;;35.80;7.68;;;17.00;99.90;;;;;;4963738;28;20118;-76
2022/10/02 08:29:07;;;;;;;28.00;7.20;;;16.90;99.90;;;;;;4965770;28;20569;-75
2022/10/02 08:31:32;;;;;;;26.73;8.30;;;17.10;99.90;;;;;;4964390;28;20061;-76
2022/10/02 08:34:16;;;;;;;20.10;6.63;;;17.10;99.90;;;;;;4952871;28;20548;-76
2022/10/02 08:36:54;;;;;;;35.28;7.60;;;17.20;99.90;;;;;;4965321;28;20138;-76
2022/10/02 08:39:24;;;;;;;27.13;7.22;;;17.20;99.90;;;;;;4944800;28;20028;-76
2022/10/02 08:42:03;;;;;;;25.40;6.97;;;17.30;99.90;;;;;;4960177;28;20028;-76
2022/10/02 08:44:50;;;;;;;27.52;7.43;;;17.40;99.90;;;;;;4961713;28;20019;-76
2022/10/02 08:47:37;;;;;;;25.60;8.93;;;17.30;99.90;;;;;;4947489;28;20547;-75
2022/10/02 08:50:28;;;;;;;30.38;8.32;;;17.50;99.90;;;;;;4962426;28;20035;-74
2022/10/02 08:53:16;;;;;;;31.63;7.60;;;17.70;99.90;;;;;;4959451;28;20096;-75
2022/10/02 08:55:50;;;;;;;35.35;9.70;;;17.80;99.90;;;;;;4961380;28;20035;-72
2022/10/02 08:58:32;;;;;;;25.42;7.90;;;17.70;99.90;;;;;;4961580;28;20030;-74
2022/10/02 09:01:09;;;;;;;29.38;6.75;;;17.80;99.90;;;;;;4963132;28;20118;-75
2022/10/02 09:03:44;;;;;;;27.30;8.63;;;17.90;99.90;;;;;;4962302;28;20424;-76
2022/10/02 09:06:37;;;;;;;18.05;7.00;;;17.70;99.90;;;;;;4962438;28;20090;-75
2022/10/02 09:09:27;;;;;;;26.30;7.20;;;18.00;99.90;;;;;;4964506;28;20519;-75
2022/10/02 09:12:14;;;;;;;34.50;8.10;;;17.90;99.90;;;;;;4966332;28;20018;-76
2022/10/02 09:15:14;;;;;;;26.92;6.97;;;18.10;99.90;;;;;;4962687;28;20035;-75
2022/10/02 09:18:16;;;;;;;22.95;7.25;;;18.30;99.90;;;;;;4960438;28;20409;-74
2022/10/02 09:20:58;;;;;;;35.13;7.50;;;18.30;99.90;;;;;;4961132;28;20512;-75
2022/10/02 09:23:51;;;;;;;24.15;5.50;;;18.50;99.90;;;;;;4955163;28;20031;-74
2022/10/02 09:26:18;;;;;;;28.17;5.72;;;18.90;99.90;;;;;;4964171;28;20027;-75
2022/10/02 09:29:05;;;;;;;15.05;5.15;;;19.00;99.90;;;;;;4960352;28;20117;-75
2022/10/02 09:32:27;;;;;;;22.15;5.18;;;19.20;99.90;;;;;;4957821;28;20027;-74
2022/10/02 09:35:25;;;;;;;15.35;4.35;;;19.10;99.90;;;;;;4944126;28;20461;-75
2022/10/02 09:38:13;;;;;;;21.88;4.43;;;19.20;99.90;;;;;;4962007;28;20034;-75
2022/10/02 09:41:03;;;;;;;17.65;3.85;;;19.20;99.90;;;;;;4958518;28;20023;-75
2022/10/02 09:43:48;;;;;;;19.10;4.63;;;18.90;99.90;;;;;;4961310;28;20027;-72
2022/10/02 09:46:53;;;;;;;23.75;6.50;;;19.00;99.90;;;;;;4964352;28;20118;-72
2022/10/02 09:49:41;;;;;;;33.60;10.02;;;19.50;99.90;;;;;;4920413;28;20074;-71
2022/10/02 09:52:40;;;;;;;21.73;5.35;;;20.20;99.90;;;;;;4960144;28;20028;-72
2022/10/02 09:55:35;;;;;;;20.52;3.63;;;20.00;99.90;;;;;;4962584;28;20113;-75
2022/10/02 09:58:29;;;;;;;17.27;3.22;;;19.90;99.90;;;;;;4960515;28;20045;-75
2022/10/02 10:00:57;;;;;;;18.25;3.85;;;20.20;99.90;;;;;;4961903;28;20582;-75
2022/10/02 10:03:57;;;;;;;21.02;3.85;;;20.00;99.90;;;;;;4964284;28;20027;-74
2022/10/02 10:06:41;;;;;;;16.42;3.67;;;19.70;99.90;;;;;;4956862;28;20118;-75
2022/10/02 10:09:07;;;;;;;29.15;3.20;;;19.70;99.90;;;;;;4964757;28;20027;-75
2022/10/02 10:12:24;;;;;;;18.88;2.88;;;19.80;99.90;;;;;;4964050;28;20019;-77
2022/10/02 10:15:00;;;;;;;18.67;2.95;;;19.80;99.90;;;;;;4928342;28;20047;-75
2022/10/02 10:18:04;;;;;;;17.65;3.17;;;20.00;99.90;;;;;;4965437;28;20066;-75
2022/10/02 10:21:07;;;;;;;13.07;2.75;;;20.00;99.90;;;;;;4945517;28;20031;-75
2022/10/02 10:23:58;;;;;;;12.55;2.95;;;19.80;99.90;;;;;;4967942;28;20045;-74
2022/10/02 10:26:37;;;;;;;12.63;2.05;;;19.80;99.90;;;;;;4962257;28;20031;-75
2022/10/02 10:29:15;;;;;;;12.10;2.80;;;19.90;99.90;;;;;;4967897;28;20033;-76
2022/10/02 10:32:01;;;;;;;13.15;2.40;;;20.10;99.90;;;;;;4964128;28;20455;-76
2022/10/02 10:34:44;;;;;;;14.23;2.63;;;20.40;99.90;;;;;;4965967;28;20039;-74
2022/10/02 10:40:46;;;;;;;27.85;8.77;;;21.20;99.90;;;;;;4962827;28;20356;-72
2022/10/02 10:44:02;;;;;;;14.38;4.45;;;21.50;99.90;;;;;;4951435;28;20387;-73
2022/10/02 10:47:06;;;;;;;52.35;15.38;;;22.50;99.90;;;;;;4963757;28;20023;-72
2022/10/02 10:49:54;;;;;;;11.65;2.60;;;23.10;97.60;;;;;;4965997;28;20133;-73
2022/10/02 10:52:44;;;;;;;26.70;7.72;;;23.00;96.30;;;;;;4963368;28;20038;-73
2022/10/02 10:55:45;;;;;;;18.88;2.03;;;23.40;95.00;;;;;;4967930;28;20027;-70
2022/10/02 10:58:27;;;;;;;10.05;2.80;;;23.60;95.30;;;;;;4971566;28;20474;-73
2022/10/02 11:01:12;;;;;;;8.60;2.10;;;23.70;94.00;;;;;;4965331;28;20050;-72
2022/10/02 11:03:41;;;;;;;14.77;2.10;;;22.90;93.40;;;;;;4971884;28;20045;-71
2022/10/02 11:06:15;;;;;;;20.63;2.55;;;22.60;94.00;;;;;;4964849;28;20027;-71
2022/10/02 11:09:03;;;;;;;15.48;2.58;;;22.00;94.40;;;;;;4965576;28;20042;-70
2022/10/02 11:11:45;;;;;;;9.68;1.67;;;21.10;95.40;;;;;;4961779;28;20072;-71
2022/10/02 11:14:25;;;;;;;12.13;2.35;;;20.90;96.20;;;;;;4964414;28;20035;-71
2022/10/02 11:17:17;;;;;;;12.18;2.38;;;20.70;96.70;;;;;;4961964;28;20530;-71
2022/10/02 11:20:04;;;;;;;10.20;1.50;;;21.00;97.40;;;;;;4964073;28;20093;-71
2022/10/02 11:22:44;;;;;;;19.08;2.70;;;21.60;96.20;;;;;;4964254;28;20432;-71
2022/10/02 11:25:47;;;;;;;7.78;1.92;;;21.80;96.20;;;;;;4965744;28;20023;-71
2022/10/02 11:28:37;;;;;;;10.60;1.58;;;21.70;95.70;;;;;;4961950;28;20062;-70
2022/10/02 11:31:26;;;;;;;12.75;2.17;;;21.70;95.70;;;;;;4966990;28;20028;-71
2022/10/02 11:34:10;;;;;;;13.68;2.13;;;21.50;95.10;;;;;;4964689;28;20110;-71
2022/10/02 11:36:51;;;;;;;11.50;2.40;;;21.40;95.40;;;;;;4946063;28;20035;-71
2022/10/02 11:39:54;;;;;;;34.20;8.73;;;21.10;95.20;;;;;;4963928;28;20738;-74
2022/10/02 11:42:44;;;;;;;12.85;2.42;;;20.80;95.40;;;;;;4967350;28;20021;-74
2022/10/02 11:45:24;;;;;;;13.85;2.10;;;20.50;96.20;;;;;;4965774;28;20035;-75
2022/10/02 11:48:20;;;;;;;13.63;2.25;;;20.40;96.60;;;;;;4967695;28;20035;-74
2022/10/02 11:50:52;;;;;;;13.40;2.97;;;20.50;97.10;;;;;;4951771;28;20460;-74
2022/10/02 11:53:24;;;;;;;8.98;2.00;;;20.40;97.30;;;;;;4947570;28;20515;-75
2022/10/02 11:56:20;;;;;;;14.85;2.17;;;20.30;97.40;;;;;;4966367;28;20121;-74
2022/10/02 11:58:45;;;;;;;13.75;1.83;;;20.30;98.00;;;;;;4965725;28;20357;-74
2022/10/02 12:01:32;;;;;;;12.35;2.20;;;20.00;98.20;;;;;;4967096;28;20042;-74
2022/10/02 12:04:28;;;;;;;13.45;2.05;;;19.90;98.80;;;;;;4967009;28;20061;-74
2022/10/02 12:06:59;;;;;;;8.38;1.85;;;19.80;99.30;;;;;;4964237;28;20085;-74
2022/10/02 12:09:53;;;;;;;12.68;2.20;;;19.70;99.70;;;;;;4964108;28;20105;-74
2022/10/02 12:12:58;;;;;;;13.73;1.77;;;19.70;99.90;;;;;;4966974;28;20026;-74
2022/10/02 12:15:43;;;;;;;14.85;2.55;;;19.80;99.70;;;;;;4961438;28;20027;-72
2022/10/02 12:18:46;;;;;;;14.20;3.63;;;19.80;99.60;;;;;;4961641;28;20035;-74
2022/10/02 12:27:41;;;;;;;8.73;2.33;;;19.90;99.70;;;;;;4934085;28;20039;-75
2022/10/02 12:30:39;;;;;;;11.27;1.80;;;20.00;99.90;;;;;;4951263;28;20064;-74
2022/10/02 12:33:11;;;;;;;10.70;2.03;;;20.20;98.40;;;;;;4963738;28;20037;-74
2022/10/02 12:36:00;;;;;;;12.38;2.25;;;20.20;97.40;;;;;;4965394;28;20027;-76
2022/10/02 12:38:48;;;;;;;10.48;1.95;;;20.50;97.90;;;;;;4965381;28;20035;-72
2022/10/02 12:41:35;;;;;;;14.48;2.13;;;20.80;98.00;;;;;;4965906;28;20102;-76
2022/10/02 12:44:40;;;;;;;9.55;2.22;;;20.90;97.20;;;;;;4947157;28;20135;-74
2022/10/02 12:48:05;;;;;;;58.53;21.55;;;20.80;97.50;;;;;;4947301;28;20019;-72
2022/10/02 12:50:43;;;;;;;11.85;1.88;;;20.70;97.80;;;;;;4925881;29;20538;-75
2022/10/02 12:53:35;;;;;;;15.98;2.30;;;20.70;97.00;;;;;;4928282;29;20112;-74
2022/10/02 12:56:36;;;;;;;13.90;2.63;;;20.50;97.20;;;;;;4913420;29;20147;-74
2022/10/02 12:59:16;;;;;;;12.63;1.90;;;20.50;97.60;;;;;;4925630;29;20454;-75
2022/10/02 13:02:36;;;;;;;15.05;2.38;;;20.50;97.70;;;;;;4921139;29;20032;-75
2022/10/02 13:05:52;;;;;;;4.85;1.50;;;20.40;97.40;;;;;;4887837;29;20108;-74
2022/10/02 13:08:24;;;;;;;13.10;2.13;;;20.50;97.80;;;;;;4892567;29;20115;-75
2022/10/02 13:11:16;;;;;;;10.77;2.47;;;21.30;98.20;;;;;;4933767;29;20425;-77
2022/10/02 13:13:58;;;;;;;6.20;1.90;;;22.20;95.00;;;;;;4912204;29;20382;-78
2022/10/02 13:17:04;;;;;;;13.32;2.30;;;22.60;93.50;;;;;;4917706;29;20689;-80
2022/10/02 13:19:51;;;;;;;20.73;4.05;;;23.00;94.00;;;;;;4929741;29;20512;-77
2022/10/02 13:22:35;;;;;;;10.77;2.53;;;23.20;93.80;;;;;;4964658;28;20453;-78
2022/10/02 13:25:31;;;;;;;19.45;2.40;;;23.60;91.00;;;;;;4964446;28;20408;-77
2022/10/02 13:28:19;;;;;;;8.13;2.00;;;23.90;91.40;;;;;;4963379;28;20063;-73
2022/10/02 13:31:01;;;;;;;9.57;2.28;;;24.30;91.00;;;;;;4961165;28;20027;-73
2022/10/02 13:33:33;;;;;;;12.13;2.10;;;24.80;87.70;;;;;;4962813;28;20142;-74
2022/10/02 13:36:18;;;;;;;7.75;1.90;;;25.50;84.60;;;;;;4958918;28;20157;-74
2022/10/02 13:39:12;;;;;;;9.15;2.45;;;25.30;81.50;;;;;;4941311;28;20508;-76
2022/10/02 13:41:53;;;;;;;11.52;2.05;;;24.90;85.40;;;;;;4945052;28;20031;-75
2022/10/02 13:44:23;;;;;;;13.32;2.50;;;25.10;82.30;;;;;;4962268;28;20384;-75
2022/10/02 13:46:53;;;;;;;9.10;2.28;;;25.10;81.50;;;;;;4960492;28;20034;-75
2022/10/02 13:49:54;;;;;;;121.40;62.00;;;25.10;82.10;;;;;;4962486;28;20019;-72
2022/10/02 13:52:44;;;;;;;9.80;2.55;;;24.80;79.70;;;;;;4933978;28;20058;-75
2022/10/02 13:55:24;;;;;;;10.57;2.53;;;24.50;78.90;;;;;;4966052;28;20027;-74
2022/10/02 13:58:05;;;;;;;8.70;2.03;;;24.90;78.60;;;;;;4962200;28;20023;-75
2022/10/02 14:00:36;;;;;;;9.68;1.80;;;26.00;75.80;;;;;;4944482;28;20023;-73
2022/10/02 14:03:40;;;;;;;9.70;1.88;;;26.60;73.80;;;;;;4962347;28;20034;-74
2022/10/02 14:06:19;;;;;;;8.93;2.10;;;26.60;70.70;;;;;;4959897;28;20066;-75
2022/10/02 14:08:59;;;;;;;10.60;1.92;;;26.20;71.00;;;;;;4960593;28;20040;-73
2022/10/02 14:11:43;;;;;;;8.15;1.85;;;24.50;72.80;;;;;;4960349;28;20027;-77